Time;durP1;ratioP1;P1;durP2;ratioP2;P2;SDS_P1;SDS_P2;PMS_P1;PMS_P2;Temp;Humidity;BMP_temperature;BMP_pressure;BME280_temperature;BME280_humidity;BME280_pressure;Samples;Min_cycle;Max_cycle;Signal;HPM_P1;HPM_P2
2021/12/14 00:00:03;;;;;;;4.30;1.93;;;5.10;99.90;;;;;;5130757;28;20226;-95
2021/12/14 00:05:27;;;;;;;5.10;3.17;;;4.90;99.90;;;;;;5133065;28;20198;-95
2021/12/14 00:08:04;;;;;;;2.83;2.60;;;4.90;99.90;;;;;;5132479;28;20218;-95
2021/12/14 00:10:51;;;;;;;3.10;2.23;;;5.00;99.90;;;;;;5133820;28;20210;-95
2021/12/14 00:13:31;;;;;;;2.53;2.30;;;5.00;99.90;;;;;;5134760;28;20217;-96
2021/12/14 00:16:02;;;;;;;4.53;1.93;;;5.00;99.90;;;;;;5130899;28;20263;-96
2021/12/14 00:18:36;;;;;;;4.97;2.27;;;5.00;99.90;;;;;;5123404;28;20201;-96
2021/12/14 00:21:18;;;;;;;3.30;1.70;;;5.00;99.90;;;;;;5120863;28;20225;-95
2021/12/14 00:24:11;;;;;;;3.87;1.83;;;5.00;99.90;;;;;;5121849;28;20250;-94
2021/12/14 00:26:46;;;;;;;1.73;1.60;;;4.90;99.90;;;;;;5121221;28;20202;-91
2021/12/14 00:29:24;;;;;;;3.40;2.03;;;4.90;99.90;;;;;;5123108;28;20305;-95
2021/12/14 00:31:57;;;;;;;3.20;1.73;;;4.90;99.90;;;;;;5123848;28;20216;-95
2021/12/14 00:34:38;;;;;;;2.73;1.50;;;4.90;99.90;;;;;;5125196;28;20293;-95
2021/12/14 00:37:12;;;;;;;2.77;1.80;;;4.80;99.90;;;;;;5120893;28;20210;-95
2021/12/14 00:39:46;;;;;;;2.60;1.73;;;4.80;99.90;;;;;;5116654;28;20583;-96
2021/12/14 00:42:17;;;;;;;3.50;1.80;;;4.80;99.90;;;;;;5101695;28;20234;-96
2021/12/14 00:44:50;;;;;;;2.33;1.73;;;4.70;99.90;;;;;;5102827;28;20199;-96
2021/12/14 00:47:23;;;;;;;2.93;1.80;;;4.70;99.90;;;;;;5103587;28;20652;-96
2021/12/14 00:49:55;;;;;;;3.90;2.10;;;4.60;99.90;;;;;;5101960;28;20207;-95
2021/12/14 00:52:26;;;;;;;3.13;2.23;;;4.60;99.90;;;;;;5102485;28;20218;-95
2021/12/14 00:54:59;;;;;;;3.53;2.00;;;4.40;99.90;;;;;;5067835;28;20249;-95
2021/12/14 00:57:31;;;;;;;4.77;2.53;;;4.30;99.90;;;;;;5100899;28;20238;-96
2021/12/14 01:00:02;;;;;;;3.47;2.20;;;4.20;99.90;;;;;;5101088;28;20257;-93
2021/12/14 01:02:33;;;;;;;4.33;1.87;;;4.20;99.90;;;;;;5101148;28;20207;-95
2021/12/14 01:05:16;;;;;;;4.17;2.10;;;4.30;99.90;;;;;;5102406;28;20666;-96
2021/12/14 01:07:47;;;;;;;2.23;1.70;;;4.30;99.90;;;;;;5100294;28;20663;-96
2021/12/14 01:10:24;;;;;;;2.37;1.87;;;4.30;99.90;;;;;;5100646;28;20245;-96
2021/12/14 01:13:02;;;;;;;2.47;1.67;;;4.40;99.90;;;;;;5100287;28;20210;-96
2021/12/14 01:15:51;;;;;;;2.63;2.00;;;4.40;99.90;;;;;;5099837;28;20259;-94
2021/12/14 01:18:33;;;;;;;2.87;1.90;;;4.40;99.90;;;;;;5099284;28;20212;-96
2021/12/14 01:21:14;;;;;;;2.23;1.80;;;4.30;99.90;;;;;;5099703;28;20294;-96
2021/12/14 01:23:46;;;;;;;2.43;1.70;;;4.40;99.90;;;;;;5099401;28;20733;-96
2021/12/14 01:26:21;;;;;;;3.23;1.43;;;4.40;99.90;;;;;;5098298;28;20206;-95
2021/12/14 01:28:52;;;;;;;1.57;1.37;;;4.40;99.90;;;;;;5100296;28;20207;-95
2021/12/14 01:31:30;;;;;;;2.30;1.30;;;4.40;99.90;;;;;;5071540;28;20210;-94
2021/12/14 01:34:05;;;;;;;2.10;1.43;;;4.50;99.90;;;;;;5103948;28;20198;-94
2021/12/14 01:36:42;;;;;;;2.53;1.30;;;4.50;99.90;;;;;;5099971;28;20270;-95
2021/12/14 01:39:46;;;;;;;2.37;1.83;;;4.40;99.90;;;;;;5101599;28;20194;-95
2021/12/14 01:42:26;;;;;;;2.53;2.00;;;4.50;99.90;;;;;;5100211;28;20225;-96
2021/12/14 01:45:01;;;;;;;3.63;2.43;;;4.40;99.90;;;;;;5111504;28;20211;-95
2021/12/14 01:47:36;;;;;;;3.07;2.33;;;4.40;99.90;;;;;;5109987;28;20222;-96
2021/12/14 01:50:12;;;;;;;3.07;2.77;;;4.40;99.90;;;;;;5086419;28;20712;-96
2021/12/14 01:52:45;;;;;;;4.27;2.77;;;4.40;99.90;;;;;;5105533;28;20230;-95
2021/12/14 01:55:21;;;;;;;4.27;3.10;;;4.30;99.90;;;;;;5105287;28;20210;-96
2021/12/14 01:57:56;;;;;;;4.73;3.80;;;4.30;99.90;;;;;;5103470;28;20206;-96
2021/12/14 02:00:36;;;;;;;5.73;3.43;;;4.30;99.90;;;;;;5105407;28;20226;-96
2021/12/14 02:03:11;;;;;;;6.83;4.23;;;4.30;99.90;;;;;;5104767;28;20203;-95
2021/12/14 02:05:45;;;;;;;6.10;4.20;;;4.30;99.90;;;;;;5105716;28;20237;-96
2021/12/14 02:08:21;;;;;;;6.13;4.43;;;4.30;99.90;;;;;;5109271;28;20211;-96
2021/12/14 02:10:53;;;;;;;5.93;4.40;;;4.30;99.90;;;;;;5088937;28;20271;-95
2021/12/14 02:13:30;;;;;;;8.13;7.43;;;4.30;99.90;;;;;;5102468;28;20242;-96
2021/12/14 02:16:02;;;;;;;5.03;4.20;;;4.30;99.90;;;;;;5103931;28;20206;-95
2021/12/14 02:18:57;;;;;;;8.13;4.67;;;4.30;99.90;;;;;;5104822;28;20665;-96
2021/12/14 02:21:32;;;;;;;6.83;5.03;;;4.30;99.90;;;;;;5105811;28;20256;-96
2021/12/14 02:24:10;;;;;;;7.43;5.20;;;4.30;99.90;;;;;;5110839;28;20271;-95
2021/12/14 02:26:44;;;;;;;6.17;5.57;;;4.30;99.90;;;;;;5105905;28;20671;-96
2021/12/14 02:29:27;;;;;;;7.40;6.07;;;4.40;99.90;;;;;;5087464;28;20223;-96
2021/12/14 02:32:06;;;;;;;6.23;5.63;;;4.40;99.90;;;;;;5110604;28;20257;-96
2021/12/14 02:34:40;;;;;;;7.73;6.47;;;4.40;99.90;;;;;;5102449;28;20267;-95
2021/12/14 02:37:15;;;;;;;7.40;5.80;;;4.40;99.90;;;;;;5104685;28;20202;-96
2021/12/14 02:40:01;;;;;;;8.50;6.03;;;4.40;99.90;;;;;;5102217;28;20215;-96
2021/12/14 02:42:33;;;;;;;8.50;7.00;;;4.50;99.90;;;;;;5102068;28;20198;-96
2021/12/14 02:45:04;;;;;;;9.00;7.00;;;4.50;99.90;;;;;;5100256;28;20226;-96
2021/12/14 02:47:37;;;;;;;10.53;7.33;;;4.50;99.90;;;;;;5107353;28;20605;-95
2021/12/14 02:50:10;;;;;;;7.87;6.63;;;4.50;99.90;;;;;;5099834;28;20290;-96
2021/12/14 02:52:44;;;;;;;9.53;6.90;;;4.50;99.90;;;;;;5099815;28;20284;-96
2021/12/14 02:55:19;;;;;;;7.83;6.77;;;4.60;99.90;;;;;;5098825;28;20237;-96
2021/12/14 02:57:53;;;;;;;10.30;7.00;;;4.50;99.90;;;;;;5097830;28;20202;-96
2021/12/14 03:00:28;;;;;;;7.77;6.90;;;4.50;99.90;;;;;;5099396;28;20211;-96
2021/12/14 03:03:00;;;;;;;9.17;7.10;;;4.50;99.90;;;;;;5098311;28;20217;-95
2021/12/14 03:05:34;;;;;;;9.40;7.40;;;4.50;99.90;;;;;;5098311;28;20202;-95
2021/12/14 03:08:10;;;;;;;10.33;6.80;;;4.50;99.90;;;;;;5097001;28;20628;-95
2021/12/14 03:10:55;;;;;;;9.07;6.53;;;4.50;99.90;;;;;;5097720;28;20275;-95
2021/12/14 03:13:29;;;;;;;14.00;7.13;;;4.50;99.90;;;;;;5099705;28;20210;-96
2021/12/14 03:16:03;;;;;;;8.50;6.80;;;4.60;99.90;;;;;;5099547;28;20225;-96
2021/12/14 03:18:37;;;;;;;8.13;6.10;;;4.50;99.90;;;;;;5098253;28;20238;-95
2021/12/14 03:21:11;;;;;;;8.20;6.67;;;4.50;99.90;;;;;;5099149;28;20237;-96
2021/12/14 03:23:47;;;;;;;8.87;6.00;;;4.50;99.90;;;;;;5103505;28;20207;-94
2021/12/14 03:26:25;;;;;;;7.70;6.40;;;4.50;99.90;;;;;;5105530;28;20275;-96
2021/12/14 03:28:59;;;;;;;9.37;6.50;;;4.50;99.90;;;;;;5101550;28;20241;-96
2021/12/14 03:31:33;;;;;;;9.83;6.83;;;4.50;99.90;;;;;;5107296;28;20226;-96
2021/12/14 03:34:07;;;;;;;8.70;6.57;;;4.40;99.90;;;;;;5119629;28;20595;-95
2021/12/14 03:36:40;;;;;;;8.33;6.83;;;4.40;99.90;;;;;;5118215;28;20209;-96
2021/12/14 03:39:17;;;;;;;7.73;6.77;;;4.30;99.90;;;;;;5119074;28;20206;-96
2021/12/14 03:41:52;;;;;;;9.37;6.70;;;4.20;99.90;;;;;;5120424;28;20214;-95
2021/12/14 03:44:28;;;;;;;8.03;6.37;;;4.20;99.90;;;;;;5106878;28;20225;-95
2021/12/14 03:47:02;;;;;;;9.13;6.67;;;4.20;99.90;;;;;;5124760;28;20258;-95
2021/12/14 03:49:34;;;;;;;9.43;7.13;;;4.20;99.90;;;;;;5136154;28;20186;-95
2021/12/14 03:52:09;;;;;;;7.57;5.53;;;4.30;99.90;;;;;;5123031;28;20252;-96
2021/12/14 03:54:42;;;;;;;6.73;4.93;;;4.30;99.90;;;;;;5139403;28;20213;-96
2021/12/14 03:57:14;;;;;;;5.77;4.57;;;4.40;99.90;;;;;;5135450;28;20217;-94
2021/12/14 03:59:47;;;;;;;4.63;3.80;;;4.40;99.90;;;;;;5119764;28;20206;-95
2021/12/14 04:02:20;;;;;;;3.93;2.77;;;4.50;99.90;;;;;;5136195;28;20739;-96
2021/12/14 04:05:02;;;;;;;4.03;2.90;;;4.50;99.90;;;;;;5136024;28;20182;-96
2021/12/14 04:07:36;;;;;;;5.10;3.37;;;4.60;99.90;;;;;;5135319;28;20210;-96
2021/12/14 04:10:13;;;;;;;3.60;2.60;;;4.60;99.90;;;;;;5136464;28;20206;-96
2021/12/14 04:12:44;;;;;;;3.93;2.70;;;4.60;99.90;;;;;;5134514;28;20229;-96
2021/12/14 04:15:16;;;;;;;4.80;2.80;;;4.60;99.90;;;;;;5133552;28;20202;-96
2021/12/14 04:17:49;;;;;;;3.57;2.77;;;4.60;99.90;;;;;;5131822;28;20249;-96
2021/12/14 04:20:23;;;;;;;3.23;2.93;;;4.60;99.90;;;;;;5127510;28;20202;-95
2021/12/14 04:22:55;;;;;;;4.40;3.40;;;4.70;99.90;;;;;;5124349;28;20213;-96
2021/12/14 04:25:32;;;;;;;3.37;3.07;;;4.60;99.90;;;;;;5122386;28;20213;-94
2021/12/14 04:28:07;;;;;;;4.10;3.60;;;4.70;99.90;;;;;;5123099;28;20225;-95
2021/12/14 04:30:39;;;;;;;5.43;3.57;;;4.60;99.90;;;;;;5108865;28;20573;-95
2021/12/14 04:33:13;;;;;;;2.80;2.50;;;4.70;99.90;;;;;;5101324;28;20695;-95
2021/12/14 04:35:48;;;;;;;4.47;3.60;;;4.70;99.90;;;;;;5102782;28;20237;-96
2021/12/14 04:38:23;;;;;;;4.50;3.33;;;4.70;99.90;;;;;;5119153;28;20213;-95
2021/12/14 04:52:22;;;;;;;6.17;5.67;;;4.60;99.90;;;;;;5130778;28;20228;-96
2021/12/14 04:54:55;;;;;;;5.47;5.03;;;4.60;99.90;;;;;;5126292;28;20233;-95
2021/12/14 04:57:32;;;;;;;3.30;3.00;;;4.60;99.90;;;;;;5127152;28;20233;-96
2021/12/14 05:00:20;;;;;;;2.90;2.10;;;4.50;99.90;;;;;;5125318;28;20213;-94
2021/12/14 05:02:53;;;;;;;3.83;2.50;;;4.60;99.90;;;;;;5126388;28;20234;-96
2021/12/14 05:05:30;;;;;;;3.03;1.97;;;4.50;99.90;;;;;;5122599;28;20206;-95
2021/12/14 05:10:57;;;;;;;2.00;1.80;;;4.50;99.90;;;;;;5123705;28;20230;-95
2021/12/14 05:13:37;;;;;;;1.67;1.50;;;4.50;99.90;;;;;;5123788;28;20226;-96
2021/12/14 05:16:09;;;;;;;1.63;1.53;;;4.60;99.90;;;;;;5123637;28;20213;-96
2021/12/14 05:18:46;;;;;;;2.43;1.60;;;4.60;99.90;;;;;;5121152;22;20249;-96
2021/12/14 05:21:25;;;;;;;3.73;2.27;;;4.60;99.90;;;;;;5028485;28;20209;-96
2021/12/14 05:23:57;;;;;;;2.00;1.60;;;4.60;99.90;;;;;;5027291;28;20217;-96
2021/12/14 05:26:28;;;;;;;2.53;1.60;;;4.50;99.90;;;;;;5029710;28;20225;-96
2021/12/14 05:29:10;;;;;;;1.90;1.10;;;4.50;99.90;;;;;;5031186;28;20213;-96
2021/12/14 05:31:47;;;;;;;1.30;1.10;;;4.50;99.90;;;;;;5032324;28;20666;-93
2021/12/14 05:34:19;;;;;;;1.07;0.97;;;4.50;99.90;;;;;;5069357;23;20303;-96
2021/12/14 05:36:51;;;;;;;1.80;1.17;;;4.50;99.90;;;;;;5057191;28;20296;-96
2021/12/14 05:39:43;;;;;;;1.43;1.00;;;4.40;99.90;;;;;;5118653;22;20252;-93
2021/12/14 05:45:12;;;;;;;2.30;1.70;;;4.50;99.90;;;;;;5068037;28;20215;-96
2021/12/14 05:47:50;;;;;;;2.00;1.63;;;4.40;99.90;;;;;;5068060;28;20221;-95
2021/12/14 05:50:29;;;;;;;4.30;4.00;;;4.40;99.90;;;;;;5068573;28;20208;-95
2021/12/14 05:53:02;;;;;;;1.83;1.57;;;4.40;99.90;;;;;;5068288;28;20243;-96
2021/12/14 05:55:38;;;;;;;2.13;1.60;;;4.40;99.90;;;;;;5064498;28;20208;-95
2021/12/14 05:58:15;;;;;;;1.90;1.47;;;4.40;99.90;;;;;;5064032;28;20218;-96
2021/12/14 06:00:51;;;;;;;2.73;1.37;;;4.30;99.90;;;;;;5060033;28;20222;-95
2021/12/14 06:03:27;;;;;;;1.30;1.07;;;4.40;99.90;;;;;;5073332;28;20214;-96
2021/12/14 06:06:00;;;;;;;1.90;1.00;;;4.40;99.90;;;;;;5100890;22;20241;-95
2021/12/14 06:08:36;;;;;;;1.23;1.13;;;4.40;99.90;;;;;;5017952;28;20193;-95
2021/12/14 06:11:07;;;;;;;1.50;1.20;;;4.40;99.90;;;;;;5067681;23;20224;-95
2021/12/14 06:13:42;;;;;;;1.40;0.83;;;4.40;99.90;;;;;;5057328;28;20263;-96
2021/12/14 06:16:28;;;;;;;2.37;1.10;;;4.40;99.90;;;;;;5056020;28;20184;-96
2021/12/14 06:19:20;;;;;;;1.10;0.70;;;4.40;99.90;;;;;;5056820;28;20185;-96
2021/12/14 06:21:55;;;;;;;0.83;0.80;;;4.40;99.90;;;;;;5045282;28;20201;-96
2021/12/14 06:24:30;;;;;;;26.17;7.77;;;4.40;99.90;;;;;;5045695;28;20239;-94
2021/12/14 06:27:07;;;;;;;1.27;0.70;;;4.40;99.90;;;;;;5051595;28;20200;-95
2021/12/14 06:29:41;;;;;;;2.30;0.90;;;4.50;99.90;;;;;;5047687;28;20220;-95
2021/12/14 06:32:16;;;;;;;2.20;2.10;;;4.40;99.90;;;;;;5041536;28;20208;-95
2021/12/14 06:34:50;;;;;;;0.70;0.50;;;4.40;99.90;;;;;;5044688;28;20579;-96
2021/12/14 06:38:08;;;;;;;0.70;0.70;;;4.40;99.90;;;;;;5040504;28;20267;-96
2021/12/14 06:40:43;;;;;;;1.77;1.07;;;4.40;99.90;;;;;;5042710;28;20212;-96
2021/12/14 06:43:19;;;;;;;2.37;1.83;;;4.40;99.90;;;;;;5041266;28;20204;-96
2021/12/14 06:45:55;;;;;;;0.53;0.53;;;4.30;99.90;;;;;;5044084;28;20204;-92
2021/12/14 06:48:33;;;;;;;9.43;5.27;;;4.30;99.90;;;;;;5044380;28;20217;-96
2021/12/14 06:51:10;;;;;;;1.87;0.90;;;4.30;99.90;;;;;;5041463;28;20209;-96
2021/12/14 06:53:44;;;;;;;3.60;1.53;;;4.20;99.90;;;;;;5039029;28;20246;-96
2021/12/14 06:56:17;;;;;;;1.20;0.80;;;4.20;99.90;;;;;;5041435;28;20272;-96
2021/12/14 06:58:52;;;;;;;1.00;0.70;;;4.10;99.90;;;;;;5041063;28;20229;-96
2021/12/14 07:01:27;;;;;;;1.40;1.30;;;4.10;99.90;;;;;;5040291;28;20268;-96
2021/12/14 07:04:04;;;;;;;1.63;1.53;;;4.00;99.90;;;;;;5043917;28;20254;-95
2021/12/14 07:06:38;;;;;;;0.60;0.50;;;4.00;99.90;;;;;;5041348;28;20254;-95
2021/12/14 07:09:13;;;;;;;1.23;0.60;;;4.00;99.90;;;;;;5042235;28;20220;-95
2021/12/14 07:11:47;;;;;;;0.57;0.57;;;4.00;99.90;;;;;;5042256;28;20231;-95
2021/12/14 07:14:30;;;;;;;1.17;1.07;;;4.00;99.90;;;;;;5040109;28;20624;-95
2021/12/14 07:17:06;;;;;;;2.00;0.50;;;3.90;99.90;;;;;;5041200;28;20649;-96
2021/12/14 07:19:45;;;;;;;0.90;0.40;;;3.80;99.90;;;;;;5043302;28;20207;-96
2021/12/14 07:22:39;;;;;;;2.77;2.50;;;3.80;99.90;;;;;;5043465;28;20262;-95
2021/12/14 07:25:13;;;;;;;0.67;0.50;;;3.80;99.90;;;;;;5045950;28;20233;-96
2021/12/14 07:27:47;;;;;;;0.70;0.43;;;3.80;99.90;;;;;;5041956;28;20258;-96
2021/12/14 07:30:26;;;;;;;0.93;0.60;;;3.80;99.90;;;;;;5044411;28;20208;-95
2021/12/14 07:33:02;;;;;;;1.10;0.47;;;3.80;99.90;;;;;;5024427;28;20232;-96
2021/12/14 07:35:40;;;;;;;0.53;0.50;;;3.80;99.90;;;;;;5024900;28;20300;-95
2021/12/14 07:38:29;;;;;;;0.67;0.50;;;3.90;99.90;;;;;;5028535;28;20237;-95
2021/12/14 07:41:23;;;;;;;0.50;0.50;;;4.00;99.90;;;;;;5023879;28;20205;-96
2021/12/14 07:43:59;;;;;;;1.03;0.60;;;4.10;99.90;;;;;;5028181;28;20232;-96
2021/12/14 07:46:36;;;;;;;0.40;0.40;;;4.10;99.90;;;;;;5032734;28;20212;-95
2021/12/14 07:49:10;;;;;;;1.60;0.47;;;4.10;99.90;;;;;;5044635;28;20200;-95
2021/12/14 07:51:44;;;;;;;0.43;0.40;;;4.20;99.90;;;;;;5044241;28;20209;-95
2021/12/14 07:54:18;;;;;;;0.67;0.40;;;4.20;99.90;;;;;;5043286;28;20248;-96
2021/12/14 07:56:53;;;;;;;0.33;0.30;;;4.20;99.90;;;;;;5041195;28;20239;-96
2021/12/14 07:59:27;;;;;;;1.73;0.40;;;4.20;99.90;;;;;;5044064;28;20208;-96
2021/12/14 08:02:19;;;;;;;0.40;0.40;;;4.10;99.90;;;;;;5042073;28;20675;-96
2021/12/14 08:04:54;;;;;;;0.90;0.50;;;4.10;99.90;;;;;;5041259;28;20273;-96
2021/12/14 08:07:33;;;;;;;0.70;0.40;;;4.10;99.90;;;;;;5040700;28;20213;-94
2021/12/14 08:10:09;;;;;;;0.93;0.40;;;4.00;99.90;;;;;;5044995;28;20262;-95
2021/12/14 08:12:42;;;;;;;0.50;0.40;;;4.00;99.90;;;;;;5041797;28;20205;-96
2021/12/14 08:15:20;;;;;;;0.60;0.40;;;3.90;99.90;;;;;;5041710;28;20335;-96
2021/12/14 08:18:04;;;;;;;1.80;0.50;;;3.90;99.90;;;;;;5048626;28;20218;-96
2021/12/14 08:20:36;;;;;;;1.70;0.50;;;3.90;99.90;;;;;;5058189;28;20212;-95
2021/12/14 08:23:23;;;;;;;1.07;0.50;;;3.90;99.90;;;;;;5058795;28;20192;-95
2021/12/14 08:25:57;;;;;;;0.90;0.63;;;3.90;99.90;;;;;;5054556;28;20209;-96
2021/12/14 08:28:29;;;;;;;0.47;0.40;;;3.90;99.90;;;;;;5049995;28;20201;-96
2021/12/14 08:31:12;;;;;;;0.47;0.40;;;3.90;99.90;;;;;;5046560;28;20212;-94
2021/12/14 08:33:43;;;;;;;1.50;0.40;;;3.80;99.90;;;;;;5061160;28;20240;-95
2021/12/14 08:36:16;;;;;;;1.63;0.50;;;3.80;99.90;;;;;;5058326;28;20478;-95
2021/12/14 08:39:01;;;;;;;0.60;0.50;;;3.70;99.90;;;;;;5061787;28;20271;-95
2021/12/14 08:41:32;;;;;;;0.60;0.40;;;3.60;99.90;;;;;;5058944;28;20295;-96
2021/12/14 08:44:10;;;;;;;0.70;0.53;;;3.60;99.90;;;;;;5058678;28;20208;-96
2021/12/14 08:46:41;;;;;;;0.53;0.30;;;3.60;99.90;;;;;;5057396;28;20239;-94
2021/12/14 08:49:15;;;;;;;0.70;0.43;;;3.50;99.90;;;;;;5059317;28;20220;-95
2021/12/14 08:51:50;;;;;;;0.40;0.30;;;3.50;99.90;;;;;;5061713;28;20203;-96
2021/12/14 08:54:27;;;;;;;1.37;0.50;;;3.50;99.90;;;;;;5060305;28;20236;-95
2021/12/14 08:57:01;;;;;;;0.63;0.40;;;3.40;99.90;;;;;;5058847;28;20214;-96
2021/12/14 08:59:33;;;;;;;0.33;0.30;;;3.40;99.90;;;;;;5061796;28;20235;-95
2021/12/14 09:02:06;;;;;;;0.50;0.50;;;3.30;99.90;;;;;;5060432;28;20724;-96
2021/12/14 09:04:42;;;;;;;1.77;0.40;;;3.30;99.90;;;;;;5061312;28;20207;-96
2021/12/14 09:07:16;;;;;;;0.70;0.40;;;3.20;99.90;;;;;;5057104;28;20247;-96
2021/12/14 09:09:50;;;;;;;0.60;0.40;;;3.20;99.90;;;;;;5058878;28;20291;-95
2021/12/14 09:12:24;;;;;;;0.60;0.50;;;3.10;99.90;;;;;;5058281;28;20247;-96
2021/12/14 09:14:59;;;;;;;1.77;1.67;;;3.10;99.90;;;;;;5058231;28;20238;-95
2021/12/14 09:17:31;;;;;;;0.57;0.57;;;3.10;99.90;;;;;;5057545;28;20204;-95
2021/12/14 09:20:08;;;;;;;1.37;0.50;;;3.00;99.90;;;;;;5061896;28;20271;-95
2021/12/14 09:22:42;;;;;;;1.20;0.43;;;3.00;99.90;;;;;;5060301;28;20211;-95
2021/12/14 09:25:21;;;;;;;1.40;0.60;;;2.90;99.90;;;;;;5059599;28;20628;-96
2021/12/14 09:27:52;;;;;;;0.70;0.40;;;3.00;99.90;;;;;;5060762;28;20208;-96
2021/12/14 09:30:29;;;;;;;0.87;0.40;;;2.90;99.90;;;;;;5058129;28;20288;-96
2021/12/14 09:33:00;;;;;;;0.60;0.50;;;2.90;99.90;;;;;;5018214;28;20240;-96
2021/12/14 09:35:35;;;;;;;0.70;0.50;;;2.90;99.90;;;;;;5018826;28;20272;-95
2021/12/14 09:38:09;;;;;;;0.90;0.63;;;2.90;99.90;;;;;;5034635;28;20230;-94
2021/12/14 09:40:45;;;;;;;0.60;0.50;;;2.90;99.90;;;;;;5037754;28;20247;-95
2021/12/14 09:43:18;;;;;;;1.20;0.50;;;2.90;99.90;;;;;;5038385;28;20232;-96
2021/12/14 09:45:52;;;;;;;1.13;0.60;;;2.90;99.90;;;;;;5038990;28;20209;-95
2021/12/14 09:48:27;;;;;;;0.93;0.50;;;2.90;99.90;;;;;;5037789;28;20271;-94
2021/12/14 09:51:07;;;;;;;0.43;0.43;;;3.00;99.90;;;;;;5037745;28;20204;-95
2021/12/14 09:53:42;;;;;;;0.60;0.50;;;3.00;99.90;;;;;;5038656;28;20279;-94
2021/12/14 09:56:17;;;;;;;0.73;0.60;;;3.10;99.90;;;;;;5005931;28;20232;-95
2021/12/14 09:58:53;;;;;;;1.57;0.67;;;3.20;99.90;;;;;;5038580;28;20215;-95
2021/12/14 10:01:28;;;;;;;0.30;0.30;;;3.20;99.90;;;;;;5038174;28;20251;-96
2021/12/14 10:04:07;;;;;;;1.10;0.50;;;3.20;99.90;;;;;;5036949;28;20212;-96
2021/12/14 10:06:39;;;;;;;0.60;0.60;;;3.20;99.90;;;;;;5039195;28;20213;-94
2021/12/14 10:09:15;;;;;;;1.40;0.60;;;3.20;99.90;;;;;;5037336;28;20281;-96
2021/12/14 10:12:02;;;;;;;0.90;0.43;;;3.30;99.90;;;;;;5039582;28;20216;-95
2021/12/14 10:14:38;;;;;;;2.03;0.70;;;3.30;99.90;;;;;;5041948;28;20236;-93
2021/12/14 10:17:12;;;;;;;1.50;1.37;;;3.30;99.90;;;;;;5048013;28;20239;-94
2021/12/14 10:19:45;;;;;;;1.50;0.60;;;3.30;99.90;;;;;;5045474;28;20231;-96
2021/12/14 10:22:21;;;;;;;0.57;0.43;;;3.30;99.90;;;;;;5044440;28;20232;-94
2021/12/14 10:24:53;;;;;;;0.97;0.57;;;3.30;99.90;;;;;;5043644;28;20665;-94
2021/12/14 10:27:29;;;;;;;0.70;0.60;;;3.30;99.90;;;;;;5037918;28;20681;-94
2021/12/14 10:30:02;;;;;;;2.07;0.77;;;3.30;99.90;;;;;;5042140;28;20211;-95
2021/12/14 10:32:38;;;;;;;3.07;2.77;;;3.30;99.90;;;;;;5052809;28;20189;-94
2021/12/14 10:35:12;;;;;;;0.60;0.57;;;3.30;99.90;;;;;;5057041;28;20215;-92
2021/12/14 10:38:12;;;;;;;1.83;0.63;;;3.30;99.90;;;;;;5055780;28;20201;-94
2021/12/14 10:43:52;;;;;;;0.80;0.77;;;3.30;99.90;;;;;;5044307;28;20219;-95
2021/12/14 10:46:27;;;;;;;0.77;0.67;;;3.30;99.90;;;;;;5039812;28;20652;-94
2021/12/14 10:49:00;;;;;;;1.00;0.93;;;3.20;99.90;;;;;;5040367;28;20208;-94
2021/12/14 10:51:34;;;;;;;2.03;0.80;;;3.20;99.90;;;;;;5044456;28;20622;-95
2021/12/14 10:54:13;;;;;;;2.23;2.03;;;3.20;99.90;;;;;;5042284;28;20737;-95
2021/12/14 10:56:47;;;;;;;1.03;0.67;;;3.20;99.90;;;;;;5040798;28;20236;-94
2021/12/14 10:59:25;;;;;;;0.57;0.57;;;3.20;99.90;;;;;;5044140;28;20221;-96
2021/12/14 11:01:57;;;;;;;0.70;0.50;;;3.20;99.90;;;;;;5044197;28;20204;-96
2021/12/14 11:04:37;;;;;;;0.60;0.50;;;3.20;99.90;;;;;;5041371;28;20208;-94
2021/12/14 11:07:12;;;;;;;1.40;1.30;;;3.20;99.90;;;;;;5041105;28;20209;-95
2021/12/14 11:09:45;;;;;;;2.63;2.53;;;3.20;99.90;;;;;;5043866;28;20218;-94
2021/12/14 11:12:24;;;;;;;1.00;0.40;;;3.20;99.90;;;;;;5049987;28;20212;-95
2021/12/14 11:15:03;;;;;;;0.80;0.80;;;3.10;99.90;;;;;;5058471;28;20228;-94
2021/12/14 11:20:26;;;;;;;0.53;0.50;;;3.10;99.90;;;;;;5054145;28;20209;-95
2021/12/14 11:23:09;;;;;;;0.70;0.40;;;3.10;99.90;;;;;;5047400;28;20344;-95
2021/12/14 11:25:47;;;;;;;6.33;5.43;;;3.10;99.90;;;;;;5049054;28;20269;-95
2021/12/14 11:28:24;;;;;;;0.60;0.50;;;3.00;99.90;;;;;;5047561;28;20240;-96
2021/12/14 11:31:03;;;;;;;0.50;0.50;;;3.00;99.90;;;;;;5044174;28;20219;-95
2021/12/14 11:33:36;;;;;;;0.50;0.50;;;3.00;99.90;;;;;;5044834;28;20218;-93
2021/12/14 11:36:12;;;;;;;12.53;9.13;;;3.00;99.90;;;;;;5042390;28;20649;-94
2021/12/14 11:38:45;;;;;;;0.40;0.40;;;2.90;99.90;;;;;;5042338;28;20235;-94
2021/12/14 11:41:47;;;;;;;0.60;0.50;;;2.90;99.90;;;;;;5040602;28;20259;-95
2021/12/14 11:44:22;;;;;;;1.20;0.40;;;2.90;99.90;;;;;;5009278;28;20824;-94
2021/12/14 11:47:40;;;;;;;0.87;0.43;;;2.80;99.90;;;;;;5040317;28;20213;-95
2021/12/14 11:50:12;;;;;;;0.30;0.30;;;2.80;99.90;;;;;;5041100;28;20224;-95
2021/12/14 11:52:52;;;;;;;1.00;0.60;;;2.80;99.90;;;;;;5041074;28;20200;-93
2021/12/14 11:55:37;;;;;;;1.20;0.40;;;2.80;99.90;;;;;;5041691;28;20323;-96
2021/12/14 11:58:20;;;;;;;0.77;0.40;;;2.70;99.90;;;;;;5040394;28;20212;-95
2021/12/14 12:00:56;;;;;;;1.00;0.50;;;2.70;99.90;;;;;;5039765;28;20215;-96
2021/12/14 12:03:37;;;;;;;0.77;0.60;;;2.70;99.90;;;;;;5038977;28;20312;-95
2021/12/14 12:06:14;;;;;;;1.10;0.90;;;2.70;99.90;;;;;;5039189;28;20583;-95
2021/12/14 12:11:43;;;;;;;1.90;0.50;;;2.60;99.90;;;;;;5020146;28;20300;-94
2021/12/14 12:14:24;;;;;;;0.30;0.20;;;2.50;99.90;;;;;;5028421;28;20220;-95
2021/12/14 12:16:59;;;;;;;1.00;0.53;;;2.40;99.90;;;;;;5039775;28;20260;-94
2021/12/14 12:19:33;;;;;;;1.63;1.53;;;2.40;99.90;;;;;;5038260;28;20204;-95
2021/12/14 12:22:10;;;;;;;0.30;0.30;;;2.40;99.90;;;;;;5038706;28;20278;-95
2021/12/14 12:24:45;;;;;;;2.07;1.97;;;2.40;99.90;;;;;;5038920;28;20208;-95
2021/12/14 12:27:32;;;;;;;5.13;4.90;;;2.30;99.90;;;;;;5038242;28;20212;-93
2021/12/14 12:30:20;;;;;;;0.97;0.70;;;2.30;99.90;;;;;;5043785;28;20272;-94
2021/12/14 12:32:55;;;;;;;0.37;0.37;;;2.20;99.90;;;;;;5041450;28;20722;-94
2021/12/14 12:35:35;;;;;;;0.10;0.10;;;2.20;99.90;;;;;;5041089;28;20237;-93
2021/12/14 12:38:25;;;;;;;0.30;0.20;;;2.20;99.90;;;;;;5042341;28;20213;-93
2021/12/14 12:40:59;;;;;;;1.13;0.37;;;2.10;99.90;;;;;;5040161;28;20214;-94
2021/12/14 12:43:36;;;;;;;0.60;0.60;;;2.10;99.90;;;;;;5045705;28;20232;-95
2021/12/14 12:46:12;;;;;;;0.30;0.30;;;2.10;99.90;;;;;;5047094;28;20219;-94
2021/12/14 12:48:47;;;;;;;0.80;0.20;;;2.10;99.90;;;;;;5058580;28;20211;-94
2021/12/14 12:51:49;;;;;;;0.27;0.27;;;2.00;99.90;;;;;;5058578;28;20189;-94
2021/12/14 12:54:38;;;;;;;0.53;0.30;;;2.00;99.90;;;;;;5057196;28;20200;-92
2021/12/14 12:57:36;;;;;;;0.17;0.10;;;2.00;99.90;;;;;;5056067;28;20225;-94
2021/12/14 13:00:17;;;;;;;0.67;0.20;;;1.90;99.90;;;;;;5034172;28;20669;-94
2021/12/14 13:02:51;;;;;;;1.60;0.50;;;1.90;99.90;;;;;;5038855;28;20205;-94
2021/12/14 13:05:29;;;;;;;0.50;0.30;;;1.90;99.90;;;;;;5037795;28;20208;-95
2021/12/14 13:08:11;;;;;;;0.80;0.80;;;1.80;99.90;;;;;;5038669;28;20236;-96
2021/12/14 13:10:45;;;;;;;0.60;0.40;;;1.80;99.90;;;;;;5045509;28;20251;-93
2021/12/14 13:13:19;;;;;;;0.30;0.30;;;1.80;99.90;;;;;;5039942;28;20200;-95
2021/12/14 13:15:58;;;;;;;1.07;0.20;;;1.80;99.90;;;;;;5036289;28;20200;-95
2021/12/14 13:18:38;;;;;;;2.03;0.70;;;1.90;99.90;;;;;;5037717;28;20208;-93
2021/12/14 13:21:16;;;;;;;0.67;0.20;;;1.80;99.90;;;;;;5037993;28;20238;-96
2021/12/14 13:23:59;;;;;;;0.57;0.40;;;1.80;99.90;;;;;;5037818;28;20208;-93
2021/12/14 13:26:36;;;;;;;0.43;0.30;;;1.80;99.90;;;;;;5037206;28;20247;-94
2021/12/14 13:29:17;;;;;;;0.30;0.30;;;1.80;99.90;;;;;;5036415;28;20210;-93
2021/12/14 13:31:53;;;;;;;0.83;0.37;;;1.80;99.90;;;;;;5037191;28;20287;-95
2021/12/14 13:34:47;;;;;;;0.30;0.30;;;1.80;99.90;;;;;;5037427;28;20219;-95
2021/12/14 13:37:22;;;;;;;0.33;0.20;;;1.80;99.90;;;;;;5036257;28;20271;-94
2021/12/14 13:39:57;;;;;;;0.13;0.13;;;1.80;99.90;;;;;;5037426;28;20208;-95
2021/12/14 13:42:54;;;;;;;0.77;0.30;;;1.70;99.90;;;;;;5037839;28;20216;-95
2021/12/14 13:45:31;;;;;;;0.27;0.27;;;1.80;99.90;;;;;;5069546;22;20242;-94
2021/12/14 13:48:08;;;;;;;0.43;0.40;;;1.80;99.90;;;;;;5037378;28;20211;-94
2021/12/14 13:50:43;;;;;;;0.40;0.30;;;1.80;99.90;;;;;;5040405;28;20251;-96
2021/12/14 13:53:16;;;;;;;0.13;0.13;;;1.70;99.90;;;;;;5039241;28;20201;-93
2021/12/14 13:56:12;;;;;;;0.87;0.30;;;1.70;99.90;;;;;;5038231;28;20610;-95
2021/12/14 13:58:44;;;;;;;0.20;0.17;;;1.70;99.90;;;;;;5037505;28;20254;-95
2021/12/14 14:01:18;;;;;;;2.27;0.30;;;1.70;99.90;;;;;;5040248;28;20251;-93
2021/12/14 14:03:55;;;;;;;1.50;0.37;;;1.70;99.90;;;;;;5040339;28;20243;-94
2021/12/14 14:06:26;;;;;;;0.20;0.20;;;1.70;99.90;;;;;;5036941;28;20676;-94
2021/12/14 14:09:01;;;;;;;0.30;0.30;;;1.70;99.90;;;;;;5041366;28;20243;-93
2021/12/14 14:11:38;;;;;;;2.63;0.30;;;1.80;99.90;;;;;;5040814;28;20209;-93
2021/12/14 14:14:21;;;;;;;1.03;0.30;;;1.80;99.90;;;;;;5039796;28;20229;-93
2021/12/14 14:16:55;;;;;;;0.20;0.20;;;1.80;99.90;;;;;;5040608;28;20235;-96